sensor_id;sensor_type;location;lat;lon;timestamp;temperature;humidity
29413;DHT22;16389;50.126;8.450;2022-08-21T00:01:11;18.50;99.90
29413;DHT22;16389;50.126;8.450;2022-08-21T00:03:38;18.40;99.90
29413;DHT22;16389;50.126;8.450;2022-08-21T00:06:04;18.40;99.90
29413;DHT22;16389;50.126;8.450;2022-08-21T00:08:30;18.40;99.90
29413;DHT22;16389;50.126;8.450;2022-08-21T00:10:56;18.30;99.90
29413;DHT22;16389;50.126;8.450;2022-08-21T00:13:21;18.30;99.90
29413;DHT22;16389;50.126;8.450;2022-08-21T00:15:48;18.30;99.90
29413;DHT22;16389;50.126;8.450;2022-08-21T00:18:15;18.20;99.90
29413;DHT22;16389;50.126;8.450;2022-08-21T00:20:42;18.20;99.90
29413;DHT22;16389;50.126;8.450;2022-08-21T00:23:08;18.20;99.90
29413;DHT22;16389;50.126;8.450;2022-08-21T00:25:34;18.20;99.90
29413;DHT22;16389;50.126;8.450;2022-08-21T00:28:00;18.20;99.90
29413;DHT22;16389;50.126;8.450;2022-08-21T00:30:28;18.10;99.90
29413;DHT22;16389;50.126;8.450;2022-08-21T00:32:55;18.10;99.90
29413;DHT22;16389;50.126;8.450;2022-08-21T00:35:25;18.10;99.90
29413;DHT22;16389;50.126;8.450;2022-08-21T00:37:51;18.10;99.90
29413;DHT22;16389;50.126;8.450;2022-08-21T00:40:20;18.20;99.90
29413;DHT22;16389;50.126;8.450;2022-08-21T00:42:46;18.10;99.90
29413;DHT22;16389;50.126;8.450;2022-08-21T00:45:13;18.10;99.90
29413;DHT22;16389;50.126;8.450;2022-08-21T00:47:39;18.10;99.90
29413;DHT22;16389;50.126;8.450;2022-08-21T00:50:08;18.00;99.90
29413;DHT22;16389;50.126;8.450;2022-08-21T00:52:36;18.00;99.90
29413;DHT22;16389;50.126;8.450;2022-08-21T00:55:03;18.00;99.90
29413;DHT22;16389;50.126;8.450;2022-08-21T00:57:36;18.00;99.90
29413;DHT22;16389;50.126;8.450;2022-08-21T01:00:07;17.90;99.90
29413;DHT22;16389;50.126;8.450;2022-08-21T01:02:36;18.00;99.90
29413;DHT22;16389;50.126;8.450;2022-08-21T01:05:03;18.00;99.90
29413;DHT22;16389;50.126;8.450;2022-08-21T01:07:29;18.00;99.90
29413;DHT22;16389;50.126;8.450;2022-08-21T01:09:55;18.10;99.90
29413;DHT22;16389;50.126;8.450;2022-08-21T01:12:21;18.00;99.90
29413;DHT22;16389;50.126;8.450;2022-08-21T01:14:47;18.00;99.90
29413;DHT22;16389;50.126;8.450;2022-08-21T01:17:14;18.10;99.90
29413;DHT22;16389;50.126;8.450;2022-08-21T01:19:40;18.20;99.90
29413;DHT22;16389;50.126;8.450;2022-08-21T01:22:07;18.20;99.90
29413;DHT22;16389;50.126;8.450;2022-08-21T01:24:33;18.20;99.90
29413;DHT22;16389;50.126;8.450;2022-08-21T01:26:59;18.10;99.90
29413;DHT22;16389;50.126;8.450;2022-08-21T01:29:43;18.10;99.90
29413;DHT22;16389;50.126;8.450;2022-08-21T01:32:14;18.10;99.90
29413;DHT22;16389;50.126;8.450;2022-08-21T01:34:43;18.10;99.90
29413;DHT22;16389;50.126;8.450;2022-08-21T01:37:09;18.00;99.90
29413;DHT22;16389;50.126;8.450;2022-08-21T01:39:35;17.90;99.90
29413;DHT22;16389;50.126;8.450;2022-08-21T01:42:02;17.90;99.90
29413;DHT22;16389;50.126;8.450;2022-08-21T01:44:28;17.80;99.90
29413;DHT22;16389;50.126;8.450;2022-08-21T01:46:55;17.70;99.90
29413;DHT22;16389;50.126;8.450;2022-08-21T01:49:21;17.60;99.90
29413;DHT22;16389;50.126;8.450;2022-08-21T01:51:47;17.60;99.90
29413;DHT22;16389;50.126;8.450;2022-08-21T01:54:13;17.50;99.90
29413;DHT22;16389;50.126;8.450;2022-08-21T01:56:44;17.40;99.90
29413;DHT22;16389;50.126;8.450;2022-08-21T01:59:11;17.40;99.90
29413;DHT22;16389;50.126;8.450;2022-08-21T02:01:37;17.40;99.90
29413;DHT22;16389;50.126;8.450;2022-08-21T02:04:05;17.30;99.90
29413;DHT22;16389;50.126;8.450;2022-08-21T02:06:31;17.20;99.90
29413;DHT22;16389;50.126;8.450;2022-08-21T02:08:56;17.20;99.90
29413;DHT22;16389;50.126;8.450;2022-08-21T02:11:22;17.20;99.90
29413;DHT22;16389;50.126;8.450;2022-08-21T02:13:47;17.20;99.90
29413;DHT22;16389;50.126;8.450;2022-08-21T02:16:14;17.10;99.90
29413;DHT22;16389;50.126;8.450;2022-08-21T02:18:40;17.10;99.90
29413;DHT22;16389;50.126;8.450;2022-08-21T02:21:05;17.10;99.90
29413;DHT22;16389;50.126;8.450;2022-08-21T02:23:32;17.10;99.90
29413;DHT22;16389;50.126;8.450;2022-08-21T02:25:59;17.00;99.90
29413;DHT22;16389;50.126;8.450;2022-08-21T02:28:25;17.00;99.90
29413;DHT22;16389;50.126;8.450;2022-08-21T02:30:52;17.00;99.90
29413;DHT22;16389;50.126;8.450;2022-08-21T02:33:19;17.00;99.90
29413;DHT22;16389;50.126;8.450;2022-08-21T02:35:46;16.90;99.90
29413;DHT22;16389;50.126;8.450;2022-08-21T02:38:16;16.80;99.90
29413;DHT22;16389;50.126;8.450;2022-08-21T02:40:45;16.80;99.90
29413;DHT22;16389;50.126;8.450;2022-08-21T02:43:11;16.70;99.90
29413;DHT22;16389;50.126;8.450;2022-08-21T02:45:39;16.70;99.90
29413;DHT22;16389;50.126;8.450;2022-08-21T02:48:09;16.50;99.90
29413;DHT22;16389;50.126;8.450;2022-08-21T02:50:44;16.50;99.90
29413;DHT22;16389;50.126;8.450;2022-08-21T02:53:11;16.50;99.90
29413;DHT22;16389;50.126;8.450;2022-08-21T02:55:40;16.40;99.90
29413;DHT22;16389;50.126;8.450;2022-08-21T02:58:07;16.50;99.90
29413;DHT22;16389;50.126;8.450;2022-08-21T03:00:34;16.40;99.90
29413;DHT22;16389;50.126;8.450;2022-08-21T03:03:00;16.30;99.90
29413;DHT22;16389;50.126;8.450;2022-08-21T03:05:27;16.30;99.90
29413;DHT22;16389;50.126;8.450;2022-08-21T03:07:54;16.30;99.90
29413;DHT22;16389;50.126;8.450;2022-08-21T03:10:20;16.30;99.90
29413;DHT22;16389;50.126;8.450;2022-08-21T03:12:47;16.30;99.90
29413;DHT22;16389;50.126;8.450;2022-08-21T03:15:17;16.30;99.90
29413;DHT22;16389;50.126;8.450;2022-08-21T03:17:44;16.30;99.90
29413;DHT22;16389;50.126;8.450;2022-08-21T03:20:10;16.30;99.90
29413;DHT22;16389;50.126;8.450;2022-08-21T03:22:36;16.30;99.90
29413;DHT22;16389;50.126;8.450;2022-08-21T03:25:02;16.30;99.90
29413;DHT22;16389;50.126;8.450;2022-08-21T03:27:29;16.30;99.90
29413;DHT22;16389;50.126;8.450;2022-08-21T03:29:56;16.20;99.90
29413;DHT22;16389;50.126;8.450;2022-08-21T03:32:22;16.20;99.90
29413;DHT22;16389;50.126;8.450;2022-08-21T03:34:47;16.20;99.90
29413;DHT22;16389;50.126;8.450;2022-08-21T03:37:14;16.20;99.90
29413;DHT22;16389;50.126;8.450;2022-08-21T03:39:40;16.10;99.90
29413;DHT22;16389;50.126;8.450;2022-08-21T03:42:07;16.00;99.90
29413;DHT22;16389;50.126;8.450;2022-08-21T03:44:34;16.00;99.90
29413;DHT22;16389;50.126;8.450;2022-08-21T03:47:00;16.00;99.90
29413;DHT22;16389;50.126;8.450;2022-08-21T03:49:27;16.00;99.90
29413;DHT22;16389;50.126;8.450;2022-08-21T03:51:53;15.90;99.90
29413;DHT22;16389;50.126;8.450;2022-08-21T03:54:19;15.90;99.90
29413;DHT22;16389;50.126;8.450;2022-08-21T03:56:44;15.90;99.90
29413;DHT22;16389;50.126;8.450;2022-08-21T03:59:10;15.90;99.90
29413;DHT22;16389;50.126;8.450;2022-08-21T04:01:36;15.90;99.90
29413;DHT22;16389;50.126;8.450;2022-08-21T04:04:03;15.90;99.90
29413;DHT22;16389;50.126;8.450;2022-08-21T04:06:30;15.80;99.90
29413;DHT22;16389;50.126;8.450;2022-08-21T04:08:55;15.90;99.90
29413;DHT22;16389;50.126;8.450;2022-08-21T04:11:21;15.80;99.90
29413;DHT22;16389;50.126;8.450;2022-08-21T04:13:47;15.80;99.90
29413;DHT22;16389;50.126;8.450;2022-08-21T04:16:13;15.80;99.90
29413;DHT22;16389;50.126;8.450;2022-08-21T04:18:40;15.70;99.90
29413;DHT22;16389;50.126;8.450;2022-08-21T04:21:07;15.70;99.90
29413;DHT22;16389;50.126;8.450;2022-08-21T04:23:34;15.70;99.90
29413;DHT22;16389;50.126;8.450;2022-08-21T04:25:59;15.80;99.90
29413;DHT22;16389;50.126;8.450;2022-08-21T04:28:26;15.80;99.90
29413;DHT22;16389;50.126;8.450;2022-08-21T04:30:53;15.80;99.90
29413;DHT22;16389;50.126;8.450;2022-08-21T04:33:20;15.80;99.90
29413;DHT22;16389;50.126;8.450;2022-08-21T04:35:46;15.70;99.90
29413;DHT22;16389;50.126;8.450;2022-08-21T04:38:12;15.80;99.90
29413;DHT22;16389;50.126;8.450;2022-08-21T04:40:38;15.70;99.90
29413;DHT22;16389;50.126;8.450;2022-08-21T04:43:08;15.70;99.90
29413;DHT22;16389;50.126;8.450;2022-08-21T04:45:40;15.70;99.90
29413;DHT22;16389;50.126;8.450;2022-08-21T04:48:09;15.70;99.90
29413;DHT22;16389;50.126;8.450;2022-08-21T04:50:52;15.70;99.90
29413;DHT22;16389;50.126;8.450;2022-08-21T04:53:31;15.70;99.90
29413;DHT22;16389;50.126;8.450;2022-08-21T04:56:03;15.80;99.90
29413;DHT22;16389;50.126;8.450;2022-08-21T04:58:30;15.80;99.90
29413;DHT22;16389;50.126;8.450;2022-08-21T05:00:59;15.80;99.90
29413;DHT22;16389;50.126;8.450;2022-08-21T05:03:26;15.90;99.90
29413;DHT22;16389;50.126;8.450;2022-08-21T05:05:52;15.90;99.90
29413;DHT22;16389;50.126;8.450;2022-08-21T05:08:21;16.00;99.90
29413;DHT22;16389;50.126;8.450;2022-08-21T05:10:48;16.00;99.90
29413;DHT22;16389;50.126;8.450;2022-08-21T05:13:15;16.10;99.90
29413;DHT22;16389;50.126;8.450;2022-08-21T05:15:41;16.10;99.90
29413;DHT22;16389;50.126;8.450;2022-08-21T05:18:07;16.10;99.90
29413;DHT22;16389;50.126;8.450;2022-08-21T05:20:34;16.20;99.90
29413;DHT22;16389;50.126;8.450;2022-08-21T05:23:00;16.30;99.90
29413;DHT22;16389;50.126;8.450;2022-08-21T05:25:27;16.30;99.90
29413;DHT22;16389;50.126;8.450;2022-08-21T05:27:52;16.30;99.90
29413;DHT22;16389;50.126;8.450;2022-08-21T05:30:19;16.50;99.90
29413;DHT22;16389;50.126;8.450;2022-08-21T05:32:45;16.50;99.90
29413;DHT22;16389;50.126;8.450;2022-08-21T05:35:11;16.50;99.90
29413;DHT22;16389;50.126;8.450;2022-08-21T05:37:37;16.60;99.90
29413;DHT22;16389;50.126;8.450;2022-08-21T05:40:03;16.60;99.90
29413;DHT22;16389;50.126;8.450;2022-08-21T05:42:30;16.70;99.90
29413;DHT22;16389;50.126;8.450;2022-08-21T05:44:55;16.70;99.90
29413;DHT22;16389;50.126;8.450;2022-08-21T05:47:21;16.90;99.90
29413;DHT22;16389;50.126;8.450;2022-08-21T05:49:47;16.90;99.90
29413;DHT22;16389;50.126;8.450;2022-08-21T05:52:19;17.00;99.90
29413;DHT22;16389;50.126;8.450;2022-08-21T05:54:45;17.10;99.90
29413;DHT22;16389;50.126;8.450;2022-08-21T05:57:10;17.20;99.90
29413;DHT22;16389;50.126;8.450;2022-08-21T05:59:36;17.20;99.90
29413;DHT22;16389;50.126;8.450;2022-08-21T06:02:03;17.30;99.90
29413;DHT22;16389;50.126;8.450;2022-08-21T06:04:29;17.40;99.90
29413;DHT22;16389;50.126;8.450;2022-08-21T06:06:54;17.50;99.90
29413;DHT22;16389;50.126;8.450;2022-08-21T06:09:20;17.60;99.90
29413;DHT22;16389;50.126;8.450;2022-08-21T06:11:46;17.70;99.90
29413;DHT22;16389;50.126;8.450;2022-08-21T06:14:14;17.80;99.90
29413;DHT22;16389;50.126;8.450;2022-08-21T06:16:40;17.90;99.90
29413;DHT22;16389;50.126;8.450;2022-08-21T06:19:05;18.00;99.90
29413;DHT22;16389;50.126;8.450;2022-08-21T06:21:31;18.10;99.90
29413;DHT22;16389;50.126;8.450;2022-08-21T06:24:00;18.20;99.90
29413;DHT22;16389;50.126;8.450;2022-08-21T06:26:25;18.30;99.90
29413;DHT22;16389;50.126;8.450;2022-08-21T06:28:51;18.40;99.90
29413;DHT22;16389;50.126;8.450;2022-08-21T06:31:20;18.50;99.90
29413;DHT22;16389;50.126;8.450;2022-08-21T06:33:46;18.60;99.90
29413;DHT22;16389;50.126;8.450;2022-08-21T06:36:12;18.70;99.90
29413;DHT22;16389;50.126;8.450;2022-08-21T06:38:38;18.80;99.90
29413;DHT22;16389;50.126;8.450;2022-08-21T06:41:05;18.90;99.90
29413;DHT22;16389;50.126;8.450;2022-08-21T06:43:30;19.10;99.90
29413;DHT22;16389;50.126;8.450;2022-08-21T06:45:56;19.20;99.90
29413;DHT22;16389;50.126;8.450;2022-08-21T06:48:22;19.30;99.90
29413;DHT22;16389;50.126;8.450;2022-08-21T06:50:48;19.50;99.90
29413;DHT22;16389;50.126;8.450;2022-08-21T06:53:16;19.60;99.90
29413;DHT22;16389;50.126;8.450;2022-08-21T06:55:43;19.60;99.90
29413;DHT22;16389;50.126;8.450;2022-08-21T06:58:09;19.80;99.90
29413;DHT22;16389;50.126;8.450;2022-08-21T07:00:38;19.90;99.90
29413;DHT22;16389;50.126;8.450;2022-08-21T07:03:03;20.00;99.90
29413;DHT22;16389;50.126;8.450;2022-08-21T07:05:30;20.10;99.90
29413;DHT22;16389;50.126;8.450;2022-08-21T07:07:56;20.20;99.90
29413;DHT22;16389;50.126;8.450;2022-08-21T07:10:26;20.30;99.90
29413;DHT22;16389;50.126;8.450;2022-08-21T07:12:52;20.40;99.90
29413;DHT22;16389;50.126;8.450;2022-08-21T07:15:19;20.50;99.90
29413;DHT22;16389;50.126;8.450;2022-08-21T07:17:44;20.60;99.90
29413;DHT22;16389;50.126;8.450;2022-08-21T07:20:10;20.70;99.90
29413;DHT22;16389;50.126;8.450;2022-08-21T07:22:38;20.90;99.90
29413;DHT22;16389;50.126;8.450;2022-08-21T07:25:05;21.00;99.90
29413;DHT22;16389;50.126;8.450;2022-08-21T07:27:31;21.20;99.90
29413;DHT22;16389;50.126;8.450;2022-08-21T07:29:57;21.30;99.90
29413;DHT22;16389;50.126;8.450;2022-08-21T07:32:23;21.40;99.90
29413;DHT22;16389;50.126;8.450;2022-08-21T07:34:49;21.50;99.90
29413;DHT22;16389;50.126;8.450;2022-08-21T07:37:14;21.70;99.90
29413;DHT22;16389;50.126;8.450;2022-08-21T07:39:40;21.90;99.90
29413;DHT22;16389;50.126;8.450;2022-08-21T07:42:06;22.00;99.90
29413;DHT22;16389;50.126;8.450;2022-08-21T07:44:32;22.20;99.90
29413;DHT22;16389;50.126;8.450;2022-08-21T07:47:00;22.40;99.90
29413;DHT22;16389;50.126;8.450;2022-08-21T07:49:25;22.60;99.90
29413;DHT22;16389;50.126;8.450;2022-08-21T07:51:51;22.80;99.90
29413;DHT22;16389;50.126;8.450;2022-08-21T07:54:17;23.00;99.90
29413;DHT22;16389;50.126;8.450;2022-08-21T07:56:42;23.10;99.90
29413;DHT22;16389;50.126;8.450;2022-08-21T07:59:08;23.40;99.90
29413;DHT22;16389;50.126;8.450;2022-08-21T08:01:34;23.50;99.90
29413;DHT22;16389;50.126;8.450;2022-08-21T08:03:59;23.80;99.90
29413;DHT22;16389;50.126;8.450;2022-08-21T08:06:25;23.90;99.90
29413;DHT22;16389;50.126;8.450;2022-08-21T08:08:51;24.10;99.90
29413;DHT22;16389;50.126;8.450;2022-08-21T08:11:17;24.30;99.90
29413;DHT22;16389;50.126;8.450;2022-08-21T08:13:46;24.50;99.40
29413;DHT22;16389;50.126;8.450;2022-08-21T08:16:12;24.50;99.10
29413;DHT22;16389;50.126;8.450;2022-08-21T08:18:38;24.80;98.20
29413;DHT22;16389;50.126;8.450;2022-08-21T08:21:04;24.90;97.70
29413;DHT22;16389;50.126;8.450;2022-08-21T08:23:31;25.10;96.90
29413;DHT22;16389;50.126;8.450;2022-08-21T08:25:58;25.40;96.60
29413;DHT22;16389;50.126;8.450;2022-08-21T08:28:23;25.60;96.00
29413;DHT22;16389;50.126;8.450;2022-08-21T08:30:49;25.90;95.10
29413;DHT22;16389;50.126;8.450;2022-08-21T08:33:15;26.10;94.40
29413;DHT22;16389;50.126;8.450;2022-08-21T08:35:47;26.00;93.50
29413;DHT22;16389;50.126;8.450;2022-08-21T08:38:14;26.20;93.40
29413;DHT22;16389;50.126;8.450;2022-08-21T08:43:13;26.10;93.50
29413;DHT22;16389;50.126;8.450;2022-08-21T08:45:44;26.00;92.50
29413;DHT22;16389;50.126;8.450;2022-08-21T08:48:15;25.60;92.50
29413;DHT22;16389;50.126;8.450;2022-08-21T08:51:02;25.40;92.60
29413;DHT22;16389;50.126;8.450;2022-08-21T08:53:43;25.10;93.10
29413;DHT22;16389;50.126;8.450;2022-08-21T08:56:11;25.00;94.00
29413;DHT22;16389;50.126;8.450;2022-08-21T08:58:42;25.00;94.10
29413;DHT22;16389;50.126;8.450;2022-08-21T09:01:20;25.10;94.60
29413;DHT22;16389;50.126;8.450;2022-08-21T09:03:47;25.20;93.80
29413;DHT22;16389;50.126;8.450;2022-08-21T09:09:40;25.60;94.30
29413;DHT22;16389;50.126;8.450;2022-08-21T09:12:21;25.80;91.50
29413;DHT22;16389;50.126;8.450;2022-08-21T09:15:04;26.00;90.30
29413;DHT22;16389;50.126;8.450;2022-08-21T09:26:06;25.80;87.40
29413;DHT22;16389;50.126;8.450;2022-08-21T09:28:33;25.90;86.10
29413;DHT22;16389;50.126;8.450;2022-08-21T09:31:02;25.80;85.80
29413;DHT22;16389;50.126;8.450;2022-08-21T09:33:29;25.60;87.40
29413;DHT22;16389;50.126;8.450;2022-08-21T09:35:55;25.40;88.10
29413;DHT22;16389;50.126;8.450;2022-08-21T09:38:31;25.20;88.80
29413;DHT22;16389;50.126;8.450;2022-08-21T09:41:25;25.40;89.20
29413;DHT22;16389;50.126;8.450;2022-08-21T09:43:54;26.00;85.10
29413;DHT22;16389;50.126;8.450;2022-08-21T09:46:22;26.50;83.10
29413;DHT22;16389;50.126;8.450;2022-08-21T09:48:52;27.00;82.90
29413;DHT22;16389;50.126;8.450;2022-08-21T09:51:22;27.50;81.80
29413;DHT22;16389;50.126;8.450;2022-08-21T09:54:10;27.90;81.60
29413;DHT22;16389;50.126;8.450;2022-08-21T09:56:50;28.20;81.40
29413;DHT22;16389;50.126;8.450;2022-08-21T09:59:35;28.30;81.00
29413;DHT22;16389;50.126;8.450;2022-08-21T10:04:53;28.70;80.40
29413;DHT22;16389;50.126;8.450;2022-08-21T10:07:22;29.00;79.60
29413;DHT22;16389;50.126;8.450;2022-08-21T10:10:00;29.40;78.60
29413;DHT22;16389;50.126;8.450;2022-08-21T10:26:12;29.30;70.90
29413;DHT22;16389;50.126;8.450;2022-08-21T10:31:18;30.20;68.50
29413;DHT22;16389;50.126;8.450;2022-08-21T10:37:01;30.90;66.90
29413;DHT22;16389;50.126;8.450;2022-08-21T10:39:41;31.10;66.20
29413;DHT22;16389;50.126;8.450;2022-08-21T10:44:49;31.60;63.70
29413;DHT22;16389;50.126;8.450;2022-08-21T10:50:30;32.30;60.50
29413;DHT22;16389;50.126;8.450;2022-08-21T10:53:02;32.40;61.80
29413;DHT22;16389;50.126;8.450;2022-08-21T10:55:39;32.80;62.40
29413;DHT22;16389;50.126;8.450;2022-08-21T10:58:19;33.40;58.90
29413;DHT22;16389;50.126;8.450;2022-08-21T11:00:49;33.30;58.80
29413;DHT22;16389;50.126;8.450;2022-08-21T11:03:31;33.10;59.40
29413;DHT22;16389;50.126;8.450;2022-08-21T11:06:19;33.10;58.40
29413;DHT22;16389;50.126;8.450;2022-08-21T11:08:51;33.40;59.10
29413;DHT22;16389;50.126;8.450;2022-08-21T11:11:27;33.70;58.70
29413;DHT22;16389;50.126;8.450;2022-08-21T11:14:04;34.00;58.70
29413;DHT22;16389;50.126;8.450;2022-08-21T11:17:10;34.20;57.10
29413;DHT22;16389;50.126;8.450;2022-08-21T11:19:45;34.30;55.70
29413;DHT22;16389;50.126;8.450;2022-08-21T11:22:26;34.40;55.90
29413;DHT22;16389;50.126;8.450;2022-08-21T11:25:00;34.60;55.40
29413;DHT22;16389;50.126;8.450;2022-08-21T11:27:50;34.90;55.40
29413;DHT22;16389;50.126;8.450;2022-08-21T11:30:18;35.40;55.90
29413;DHT22;16389;50.126;8.450;2022-08-21T11:35:46;35.60;53.60
29413;DHT22;16389;50.126;8.450;2022-08-21T11:40:52;35.90;53.00
29413;DHT22;16389;50.126;8.450;2022-08-21T11:43:48;35.90;52.40
29413;DHT22;16389;50.126;8.450;2022-08-21T11:46:36;36.20;52.40
29413;DHT22;16389;50.126;8.450;2022-08-21T11:49:34;36.40;51.90
29413;DHT22;16389;50.126;8.450;2022-08-21T11:52:21;36.60;50.90
29413;DHT22;16389;50.126;8.450;2022-08-21T11:57:28;36.90;51.20
29413;DHT22;16389;50.126;8.450;2022-08-21T12:00:00;37.10;50.80
29413;DHT22;16389;50.126;8.450;2022-08-21T12:02:32;37.30;50.00
29413;DHT22;16389;50.126;8.450;2022-08-21T12:05:05;37.20;50.30
29413;DHT22;16389;50.126;8.450;2022-08-21T12:07:41;37.10;49.10
29413;DHT22;16389;50.126;8.450;2022-08-21T12:10:12;37.40;49.60
29413;DHT22;16389;50.126;8.450;2022-08-21T12:12:39;37.70;48.80
29413;DHT22;16389;50.126;8.450;2022-08-21T12:17:51;37.10;48.60
29413;DHT22;16389;50.126;8.450;2022-08-21T12:25:42;36.70;49.50
29413;DHT22;16389;50.126;8.450;2022-08-21T12:28:10;35.70;49.20
29413;DHT22;16389;50.126;8.450;2022-08-21T12:30:43;35.10;50.40
29413;DHT22;16389;50.126;8.450;2022-08-21T12:33:28;34.10;50.60
29413;DHT22;16389;50.126;8.450;2022-08-21T12:36:17;32.90;52.70
29413;DHT22;16389;50.126;8.450;2022-08-21T12:38:54;32.60;53.70
29413;DHT22;16389;50.126;8.450;2022-08-21T12:41:28;32.70;53.70
29413;DHT22;16389;50.126;8.450;2022-08-21T12:44:28;32.60;53.20
29413;DHT22;16389;50.126;8.450;2022-08-21T12:47:00;33.40;52.60
29413;DHT22;16389;50.126;8.450;2022-08-21T12:49:36;33.80;52.20
29413;DHT22;16389;50.126;8.450;2022-08-21T12:52:11;34.20;51.70
29413;DHT22;16389;50.126;8.450;2022-08-21T12:54:42;33.60;51.20
29413;DHT22;16389;50.126;8.450;2022-08-21T12:57:08;32.80;51.80
29413;DHT22;16389;50.126;8.450;2022-08-21T12:59:42;32.40;53.20
29413;DHT22;16389;50.126;8.450;2022-08-21T13:02:31;32.20;55.10
29413;DHT22;16389;50.126;8.450;2022-08-21T13:04:58;32.90;53.20
29413;DHT22;16389;50.126;8.450;2022-08-21T13:07:28;33.20;51.70
29413;DHT22;16389;50.126;8.450;2022-08-21T13:12:43;32.10;52.10
29413;DHT22;16389;50.126;8.450;2022-08-21T13:15:11;31.50;53.20
29413;DHT22;16389;50.126;8.450;2022-08-21T13:17:41;31.60;54.00
29413;DHT22;16389;50.126;8.450;2022-08-21T13:20:23;31.80;53.30
29413;DHT22;16389;50.126;8.450;2022-08-21T13:22:49;31.80;53.70
29413;DHT22;16389;50.126;8.450;2022-08-21T13:25:18;31.80;55.00
29413;DHT22;16389;50.126;8.450;2022-08-21T13:28:06;31.40;53.70
29413;DHT22;16389;50.126;8.450;2022-08-21T13:30:33;31.40;55.00
29413;DHT22;16389;50.126;8.450;2022-08-21T13:33:02;31.60;54.70
29413;DHT22;16389;50.126;8.450;2022-08-21T13:35:36;31.40;54.50
29413;DHT22;16389;50.126;8.450;2022-08-21T13:38:03;31.40;55.00
29413;DHT22;16389;50.126;8.450;2022-08-21T13:40:32;31.50;54.20
29413;DHT22;16389;50.126;8.450;2022-08-21T13:43:00;31.50;53.70
29413;DHT22;16389;50.126;8.450;2022-08-21T13:45:30;31.60;52.60
29413;DHT22;16389;50.126;8.450;2022-08-21T13:47:56;31.40;52.60
29413;DHT22;16389;50.126;8.450;2022-08-21T13:50:25;31.30;53.30
29413;DHT22;16389;50.126;8.450;2022-08-21T13:53:06;31.40;54.50
29413;DHT22;16389;50.126;8.450;2022-08-21T13:55:42;31.50;53.60
29413;DHT22;16389;50.126;8.450;2022-08-21T13:58:09;31.60;53.70
29413;DHT22;16389;50.126;8.450;2022-08-21T14:00:46;31.70;54.10
29413;DHT22;16389;50.126;8.450;2022-08-21T14:03:15;31.80;52.50
29413;DHT22;16389;50.126;8.450;2022-08-21T14:05:48;31.90;53.30
29413;DHT22;16389;50.126;8.450;2022-08-21T14:08:19;31.80;53.20
29413;DHT22;16389;50.126;8.450;2022-08-21T14:10:51;31.80;53.20
29413;DHT22;16389;50.126;8.450;2022-08-21T14:14:12;31.80;52.80
29413;DHT22;16389;50.126;8.450;2022-08-21T14:16:41;31.60;53.60
29413;DHT22;16389;50.126;8.450;2022-08-21T14:19:18;31.50;53.40
29413;DHT22;16389;50.126;8.450;2022-08-21T14:21:44;31.30;53.30
29413;DHT22;16389;50.126;8.450;2022-08-21T14:24:14;31.20;53.00
29413;DHT22;16389;50.126;8.450;2022-08-21T14:26:52;31.10;53.20
29413;DHT22;16389;50.126;8.450;2022-08-21T14:29:19;31.00;53.30
29413;DHT22;16389;50.126;8.450;2022-08-21T14:31:57;31.10;53.40
29413;DHT22;16389;50.126;8.450;2022-08-21T14:34:28;31.00;54.10
29413;DHT22;16389;50.126;8.450;2022-08-21T14:36:55;31.00;55.80
29413;DHT22;16389;50.126;8.450;2022-08-21T14:39:21;31.10;53.40
29413;DHT22;16389;50.126;8.450;2022-08-21T14:41:47;31.00;53.30
29413;DHT22;16389;50.126;8.450;2022-08-21T14:44:15;30.90;53.20
29413;DHT22;16389;50.126;8.450;2022-08-21T14:46:42;30.90;53.50
29413;DHT22;16389;50.126;8.450;2022-08-21T14:49:07;30.70;53.50
29413;DHT22;16389;50.126;8.450;2022-08-21T14:51:33;30.60;53.00
29413;DHT22;16389;50.126;8.450;2022-08-21T14:53:59;30.30;53.50
29413;DHT22;16389;50.126;8.450;2022-08-21T14:56:25;29.80;53.70
29413;DHT22;16389;50.126;8.450;2022-08-21T14:58:51;29.50;54.50
29413;DHT22;16389;50.126;8.450;2022-08-21T15:01:19;29.30;53.80
29413;DHT22;16389;50.126;8.450;2022-08-21T15:03:45;29.00;55.10
29413;DHT22;16389;50.126;8.450;2022-08-21T15:06:11;28.80;54.10
29413;DHT22;16389;50.126;8.450;2022-08-21T15:08:37;28.50;54.50
29413;DHT22;16389;50.126;8.450;2022-08-21T15:11:03;28.40;55.10
29413;DHT22;16389;50.126;8.450;2022-08-21T15:13:30;28.50;55.10
29413;DHT22;16389;50.126;8.450;2022-08-21T15:15:56;28.60;55.10
29413;DHT22;16389;50.126;8.450;2022-08-21T15:18:25;28.80;54.90
29413;DHT22;16389;50.126;8.450;2022-08-21T15:20:51;29.00;55.10
29413;DHT22;16389;50.126;8.450;2022-08-21T15:23:17;29.20;54.90
29413;DHT22;16389;50.126;8.450;2022-08-21T15:25:45;29.30;56.00
29413;DHT22;16389;50.126;8.450;2022-08-21T15:28:12;29.50;53.70
29413;DHT22;16389;50.126;8.450;2022-08-21T15:30:42;29.50;54.00
29413;DHT22;16389;50.126;8.450;2022-08-21T15:33:08;29.60;54.10
29413;DHT22;16389;50.126;8.450;2022-08-21T15:35:34;29.50;54.50
29413;DHT22;16389;50.126;8.450;2022-08-21T15:38:00;29.60;54.10
29413;DHT22;16389;50.126;8.450;2022-08-21T15:40:26;29.60;54.00
29413;DHT22;16389;50.126;8.450;2022-08-21T15:42:56;29.50;53.90
29413;DHT22;16389;50.126;8.450;2022-08-21T15:45:22;29.30;54.90
29413;DHT22;16389;50.126;8.450;2022-08-21T15:47:49;29.30;54.20
29413;DHT22;16389;50.126;8.450;2022-08-21T15:50:15;29.20;53.50
29413;DHT22;16389;50.126;8.450;2022-08-21T15:52:41;29.20;53.50
29413;DHT22;16389;50.126;8.450;2022-08-21T15:55:08;29.20;53.30
29413;DHT22;16389;50.126;8.450;2022-08-21T15:57:35;29.30;54.50
29413;DHT22;16389;50.126;8.450;2022-08-21T16:00:18;29.30;53.00
29413;DHT22;16389;50.126;8.450;2022-08-21T16:02:46;29.20;55.40
29413;DHT22;16389;50.126;8.450;2022-08-21T16:05:13;29.00;54.50
29413;DHT22;16389;50.126;8.450;2022-08-21T16:07:41;29.00;56.70
29413;DHT22;16389;50.126;8.450;2022-08-21T16:10:08;29.00;54.30
29413;DHT22;16389;50.126;8.450;2022-08-21T16:12:37;28.90;54.90
29413;DHT22;16389;50.126;8.450;2022-08-21T16:15:07;28.80;54.20
29413;DHT22;16389;50.126;8.450;2022-08-21T16:17:35;28.80;55.70
29413;DHT22;16389;50.126;8.450;2022-08-21T16:20:04;28.60;55.50
29413;DHT22;16389;50.126;8.450;2022-08-21T16:22:31;28.40;55.40
29413;DHT22;16389;50.126;8.450;2022-08-21T16:24:57;28.40;56.00
29413;DHT22;16389;50.126;8.450;2022-08-21T16:27:22;28.20;56.40
29413;DHT22;16389;50.126;8.450;2022-08-21T16:29:48;28.00;56.90
29413;DHT22;16389;50.126;8.450;2022-08-21T16:32:15;27.90;56.40
29413;DHT22;16389;50.126;8.450;2022-08-21T16:34:46;27.80;56.80
29413;DHT22;16389;50.126;8.450;2022-08-21T16:37:14;27.70;57.50
29413;DHT22;16389;50.126;8.450;2022-08-21T16:39:40;27.50;57.30
29413;DHT22;16389;50.126;8.450;2022-08-21T16:42:06;27.50;57.80
29413;DHT22;16389;50.126;8.450;2022-08-21T16:44:32;27.30;57.70